createdAt,value
2022-12-24T00:00:29.611Z,97799.19
2022-12-24T00:05:32.557Z,97809.13
2022-12-24T00:10:35.463Z,97802.59
2022-12-24T00:15:39.699Z,97821.75
2022-12-24T00:20:43.116Z,97816.59
2022-12-24T00:25:46.641Z,97832.47
2022-12-24T00:30:50.901Z,97832.47
2022-12-24T00:35:54.224Z,97833.25
2022-12-24T00:41:00.698Z,97833.72
2022-12-24T00:46:05.248Z,97838.50
2022-12-24T00:51:08.350Z,97838.09
2022-12-24T00:56:11.856Z,97850.56
2022-12-24T01:01:16.942Z,97847.81
2022-12-24T01:06:21.979Z,97843.13
2022-12-24T01:11:24.854Z,97849.63
2022-12-24T01:16:29.262Z,97863.44
2022-12-24T01:21:32.249Z,97885.44
2022-12-24T01:26:35.160Z,97887.66
2022-12-24T01:31:39.755Z,97895.50
2022-12-24T01:36:42.707Z,97913.38
2022-12-24T01:42:02.928Z,97916.63
2022-12-24T01:47:12.457Z,97913.69
2022-12-24T01:52:21.083Z,97922.34
2022-12-24T01:57:28.488Z,97928.22
2022-12-24T02:02:34.182Z,97928.84
2022-12-24T02:07:38.426Z,97941.59
2022-12-24T02:12:43.298Z,97947.88
2022-12-24T02:17:56.660Z,97950.19
2022-12-24T02:23:32.037Z,97940.44
2022-12-24T02:28:47.644Z,97964.13
2022-12-24T02:33:58.627Z,97973.16
2022-12-24T02:39:05.102Z,97980.84
2022-12-24T02:44:08.349Z,97984.47
2022-12-24T02:49:13.516Z,97993.94
2022-12-24T02:54:16.752Z,97997.94
2022-12-24T02:59:35.938Z,98008.66
2022-12-24T03:04:49.789Z,98015.25
2022-12-24T03:10:03.496Z,98021.81
2022-12-24T03:15:09.099Z,98030.97
2022-12-24T03:20:17.653Z,98031.75
2022-12-24T03:25:25.233Z,98034.38
2022-12-24T03:30:28.352Z,98038.94
2022-12-24T03:35:32.621Z,98037.34
2022-12-24T03:40:35.553Z,98050.78
2022-12-24T03:45:38.536Z,98040.53
2022-12-24T03:50:42.834Z,98049.34
2022-12-24T03:55:45.787Z,98057.63
2022-12-24T04:00:48.742Z,98057.06
2022-12-24T04:06:02.745Z,98061.03
2022-12-24T04:11:09.709Z,98069.78
2022-12-24T04:16:14.966Z,98086.16
2022-12-24T04:21:19.590Z,98082.84
2022-12-24T04:26:22.554Z,98083.75
2022-12-24T04:31:25.514Z,98087.25
2022-12-24T04:36:29.959Z,98119.03
2022-12-24T04:41:33.527Z,98125.31
2022-12-24T04:46:36.557Z,98122.47
2022-12-24T04:51:40.792Z,98137.38
2022-12-24T04:56:43.716Z,98135.25
2022-12-24T05:01:46.663Z,98157.09
2022-12-24T05:06:51.012Z,98161.91
2022-12-24T05:11:53.903Z,98159.97
2022-12-24T05:16:56.846Z,98171.69
2022-12-24T05:22:18.985Z,98181.84
2022-12-24T05:27:22.129Z,98210.84
2022-12-24T05:32:25.042Z,98200.16
2022-12-24T05:37:29.320Z,98206.09
2022-12-24T05:42:32.329Z,98204.94
2022-12-24T05:47:41.269Z,98219.06
2022-12-24T05:52:47.470Z,98225.31
2022-12-24T05:57:50.361Z,98233.50
2022-12-24T06:02:53.368Z,98240.50
2022-12-24T06:07:57.648Z,98247.94
2022-12-24T06:13:00.601Z,98280.34
2022-12-24T06:18:03.488Z,98287.34
2022-12-24T06:23:07.740Z,98295.63
2022-12-24T06:28:10.605Z,98299.13
2022-12-24T06:33:13.511Z,98300.41
2022-12-24T06:38:17.833Z,98304.06
2022-12-24T06:43:20.921Z,98311.75
2022-12-24T06:48:23.820Z,98318.78
2022-12-24T06:53:28.039Z,98327.22
2022-12-24T06:58:31.201Z,98336.44
2022-12-24T07:03:34.631Z,98342.81
2022-12-24T07:08:38.957Z,98349.31
2022-12-24T07:13:42.179Z,98365.69
2022-12-24T07:18:45.785Z,98371.03
2022-12-24T07:23:50.059Z,98377.56
2022-12-24T07:28:52.980Z,98394.50
2022-12-24T07:33:55.933Z,98395.69
2022-12-24T07:39:00.242Z,98398.97
2022-12-24T07:44:03.236Z,98407.22
2022-12-24T07:49:06.182Z,98423.50
2022-12-24T07:54:10.532Z,98423.09
2022-12-24T07:59:14.120Z,98443.53
2022-12-24T08:04:17.033Z,98439.44
2022-12-24T08:09:21.318Z,98450.28
2022-12-24T08:14:24.323Z,98453.75
2022-12-24T08:19:27.260Z,98464.81
2022-12-24T08:24:31.686Z,98472.22
2022-12-24T08:29:34.667Z,98477.31
2022-12-24T08:34:37.580Z,98489.19
2022-12-24T08:39:41.852Z,98490.00
2022-12-24T08:44:44.945Z,98494.19
2022-12-24T08:49:47.906Z,98504.81
2022-12-24T08:54:52.603Z,98510.47
2022-12-24T08:59:55.710Z,98531.84
2022-12-24T09:04:58.604Z,98544.78
2022-12-24T09:10:03.137Z,98546.44
2022-12-24T09:15:08.234Z,98550.28
2022-12-24T09:20:12.022Z,98552.19
2022-12-24T09:25:16.361Z,98562.84
2022-12-24T09:30:19.414Z,98560.31
2022-12-24T09:35:22.357Z,98557.19
2022-12-24T09:40:34.147Z,98586.63
2022-12-24T09:45:42.820Z,98596.44
2022-12-24T09:50:53.113Z,98594.38
2022-12-24T09:56:00.128Z,98605.53
2022-12-24T10:01:03.197Z,98615.84
2022-12-24T10:06:12.080Z,98634.44
2022-12-24T10:11:20.619Z,98639.56
2022-12-24T10:16:30.117Z,98645.03
2022-12-24T10:21:43.851Z,98654.50
2022-12-24T10:26:54.576Z,98656.69
2022-12-24T10:32:02.281Z,98665.25
2022-12-24T10:37:05.865Z,98660.63
2022-12-24T10:42:12.519Z,98663.38
2022-12-24T10:47:16.054Z,98657.75
2022-12-24T10:52:22.704Z,98651.66
2022-12-24T10:57:28.045Z,98671.53
2022-12-24T11:02:33.831Z,98687.84
2022-12-24T11:07:36.978Z,98688.19
2022-12-24T11:13:00.613Z,98703.25
2022-12-24T11:18:16.180Z,98696.19
2022-12-24T11:23:19.243Z,98697.75
2022-12-24T11:28:25.577Z,98718.38
2022-12-24T11:33:28.833Z,98718.78
2022-12-24T11:38:33.812Z,98720.25
2022-12-24T11:43:47.161Z,98721.84
2022-12-24T11:49:08.341Z,98723.75
2022-12-24T11:54:18.364Z,98724.84
2022-12-24T11:59:31.589Z,98734.44
2022-12-24T12:04:37.585Z,98740.09
2022-12-24T12:09:44.537Z,98743.16
2022-12-24T12:14:53.293Z,98740.69
2022-12-24T12:20:01.298Z,98749.84
2022-12-24T12:25:06.851Z,98756.41
2022-12-24T12:30:18.681Z,98740.66
2022-12-24T12:35:26.651Z,98757.56
2022-12-24T12:40:56.436Z,98755.47
2022-12-24T12:46:08.408Z,98766.91
2022-12-24T12:51:20.519Z,98770.91
2022-12-24T12:56:31.376Z,98761.81
2022-12-24T13:01:44.414Z,98759.97
2022-12-24T13:07:06.663Z,98759.16
2022-12-24T13:12:40.789Z,98760.31
2022-12-24T13:18:16.402Z,98757.28
2022-12-24T13:23:23.544Z,98762.47
2022-12-24T13:28:38.684Z,98762.97
2022-12-24T13:33:49.675Z,98768.13
2022-12-24T13:38:57.064Z,98774.03
2022-12-24T13:44:04.585Z,98778.56
2022-12-24T13:49:13.207Z,98778.97
2022-12-24T13:54:21.041Z,98778.84
2022-12-24T13:59:38.655Z,98785.81
2022-12-24T14:04:42.567Z,98787.50
2022-12-24T14:09:50.879Z,98791.56
2022-12-24T14:14:53.823Z,98802.69
2022-12-24T14:19:59.756Z,98805.31
2022-12-24T14:25:14.644Z,98820.66
2022-12-24T14:30:20.699Z,98819.63
2022-12-24T14:35:27.393Z,98828.13
2022-12-24T14:40:34.384Z,98839.81
2022-12-24T14:45:46.209Z,98836.63
2022-12-24T14:51:07.981Z,98848.41
2022-12-24T14:56:15.469Z,98854.22
2022-12-24T15:01:24.978Z,98860.84
2022-12-24T15:06:29.296Z,98862.84
2022-12-24T15:11:33.895Z,98854.06
2022-12-24T15:16:37.937Z,98870.81
2022-12-24T15:21:44.266Z,98873.63
2022-12-24T15:26:48.615Z,98890.38
2022-12-24T15:31:55.393Z,98895.19
2022-12-24T15:37:07.755Z,98900.00
2022-12-24T15:42:18.987Z,98906.56
2022-12-24T15:47:27.635Z,98914.19
2022-12-24T15:52:31.085Z,98913.03
2022-12-24T15:57:35.845Z,98923.91
2022-12-24T16:02:41.445Z,98931.56
2022-12-24T16:08:10.232Z,98940.78
2022-12-24T16:13:19.614Z,98941.63
2022-12-24T16:18:27.903Z,98937.47
2022-12-24T16:23:38.281Z,98953.31
2022-12-24T16:28:42.730Z,98967.66
2022-12-24T16:33:46.191Z,98960.81
2022-12-24T16:39:06.323Z,98977.94
2022-12-24T16:44:10.590Z,98988.41
2022-12-24T16:49:17.626Z,98988.81
2022-12-24T16:54:20.543Z,98986.81
2022-12-24T16:59:26.418Z,98992.44
2022-12-24T17:04:29.375Z,98996.06
2022-12-24T17:09:32.742Z,98998.88
2022-12-24T17:14:38.893Z,99002.47
2022-12-24T17:19:42.051Z,99016.25
2022-12-24T17:24:45.214Z,99025.25
2022-12-24T17:29:49.512Z,99021.25
2022-12-24T17:34:52.481Z,99017.19
2022-12-24T17:39:55.832Z,99016.78
2022-12-24T17:45:00.117Z,99024.19
2022-12-24T17:50:03.058Z,99037.22
2022-12-24T17:55:07.216Z,99038.03
2022-12-24T18:00:12.981Z,99042.44
2022-12-24T18:05:16.258Z,99058.59
2022-12-24T18:10:19.582Z,99055.13
2022-12-24T18:15:24.109Z,99069.03
2022-12-24T18:20:27.398Z,99063.84
2022-12-24T18:25:30.385Z,99073.78
2022-12-24T18:30:34.740Z,99084.03
2022-12-24T18:35:37.677Z,99076.88
2022-12-24T18:40:40.576Z,99085.13
2022-12-24T18:45:46.139Z,99090.72
2022-12-24T18:50:55.774Z,99095.56
2022-12-24T18:56:04.200Z,99089.94
2022-12-24T19:01:14.039Z,99094.53
2022-12-24T19:06:17.588Z,99081.88
2022-12-24T19:11:22.164Z,99097.88
2022-12-24T19:16:27.200Z,99113.16
2022-12-24T19:21:30.219Z,99122.22
2022-12-24T19:26:33.168Z,99121.97
2022-12-24T19:31:37.535Z,99121.38
2022-12-24T19:36:40.561Z,99122.38
2022-12-24T19:41:43.482Z,99133.91
2022-12-24T19:46:47.745Z,99140.09
2022-12-24T19:51:50.648Z,99151.53
2022-12-24T19:56:53.555Z,99149.56
2022-12-24T20:01:57.892Z,99138.22
2022-12-24T20:07:01.117Z,99155.91
2022-12-24T20:12:04.802Z,99159.72
2022-12-24T20:17:09.283Z,99168.31
2022-12-24T20:22:12.366Z,99167.75
2022-12-24T20:27:15.325Z,99176.19
2022-12-24T20:32:21.443Z,99179.66
2022-12-24T20:37:25.943Z,99180.09
2022-12-24T20:42:28.812Z,99191.75
2022-12-24T20:47:33.468Z,99176.75
2022-12-24T20:52:36.413Z,99187.63
2022-12-24T20:57:39.350Z,99190.19
2022-12-24T21:02:44.185Z,99188.31
2022-12-24T21:07:47.990Z,99188.78
2022-12-24T21:12:56.752Z,99190.28
2022-12-24T21:18:01.644Z,99189.53
2022-12-24T21:23:04.557Z,99191.44
2022-12-24T21:28:07.554Z,99197.22
2022-12-24T21:33:12.032Z,99200.72
2022-12-24T21:38:15.046Z,99207.31
2022-12-24T21:43:17.936Z,99205.84
2022-12-24T21:48:40.030Z,99215.69
2022-12-24T21:54:00.576Z,99211.59
2022-12-24T21:59:03.497Z,99224.09
2022-12-24T22:04:07.807Z,99228.78
2022-12-24T22:09:29.449Z,99243.28
2022-12-24T22:14:33.083Z,99229.19
2022-12-24T22:19:38.682Z,99239.63
2022-12-24T22:24:41.653Z,99250.03
2022-12-24T22:29:44.618Z,99249.06
2022-12-24T22:34:49.434Z,99251.91
2022-12-24T22:39:52.318Z,99260.38
2022-12-24T22:44:55.241Z,99262.69
2022-12-24T22:50:00.054Z,99277.25
2022-12-24T22:55:03.604Z,99269.53
2022-12-24T23:00:12.337Z,99283.91
2022-12-24T23:05:18.623Z,99292.63
2022-12-24T23:10:21.569Z,99305.59
2022-12-24T23:15:24.499Z,99296.75
2022-12-24T23:20:28.752Z,99309.00
2022-12-24T23:25:31.690Z,99315.56
2022-12-24T23:30:34.625Z,99310.34
2022-12-24T23:35:38.938Z,99317.44
2022-12-24T23:40:42.886Z,99306.13
2022-12-24T23:45:49.339Z,99316.53
2022-12-24T23:51:03.559Z,99323.50
2022-12-24T23:56:07.366Z,99322.41
